createdAt,value
2023-06-19T00:00:17.556Z,2
2023-06-19T00:05:17.361Z,2
2023-06-19T00:10:17.671Z,1
2023-06-19T00:15:17.205Z,0
2023-06-19T00:20:17.302Z,0
2023-06-19T00:25:17.520Z,0
2023-06-19T00:30:17.598Z,1
2023-06-19T00:35:17.262Z,2
2023-06-19T00:40:17.542Z,3
2023-06-19T00:45:17.357Z,6
2023-06-19T00:50:17.268Z,6
2023-06-19T00:55:17.382Z,8
2023-06-19T01:00:17.755Z,10
2023-06-19T01:05:17.451Z,10
2023-06-19T01:10:18.803Z,10
2023-06-19T01:15:17.267Z,11
2023-06-19T01:20:17.314Z,12
2023-06-19T01:25:17.554Z,13
2023-06-19T01:30:17.280Z,12
2023-06-19T01:35:17.270Z,12
2023-06-19T01:40:17.495Z,11
2023-06-19T01:45:17.258Z,11
2023-06-19T01:50:17.234Z,10
2023-06-19T01:55:17.338Z,11
2023-06-19T02:00:17.271Z,10
2023-06-19T02:05:17.229Z,10
2023-06-19T02:10:17.739Z,11
2023-06-19T02:15:17.242Z,10
2023-06-19T02:20:17.363Z,10
2023-06-19T02:25:17.570Z,9
2023-06-19T02:30:17.553Z,9
2023-06-19T02:35:17.298Z,9
2023-06-19T02:40:17.671Z,9
2023-06-19T02:45:17.550Z,7
2023-06-19T02:50:17.355Z,8
2023-06-19T02:55:17.430Z,7
2023-06-19T03:00:17.385Z,6
2023-06-19T03:05:17.374Z,6
2023-06-19T03:10:18.529Z,6
2023-06-19T03:15:17.399Z,7
2023-06-19T03:20:17.510Z,6
2023-06-19T03:25:17.410Z,6
2023-06-19T03:30:17.676Z,6
2023-06-19T03:35:17.399Z,6
2023-06-19T03:40:17.506Z,5
2023-06-19T03:45:17.429Z,6
2023-06-19T03:50:21.495Z,5
2023-06-19T03:55:17.854Z,4
2023-06-19T04:00:16.873Z,4
2023-06-19T04:05:17.025Z,4
2023-06-19T04:10:16.958Z,4
2023-06-19T04:15:16.933Z,5
2023-06-19T04:20:16.996Z,4
2023-06-19T04:25:17.091Z,5
2023-06-19T04:30:17.079Z,6
2023-06-19T04:35:16.889Z,6
2023-06-19T04:40:17.330Z,5
2023-06-19T04:45:16.908Z,5
2023-06-19T04:50:16.914Z,6
2023-06-19T04:55:17.005Z,6
2023-06-19T05:00:16.873Z,4
2023-06-19T05:05:17.040Z,4
2023-06-19T05:10:18.128Z,4
2023-06-19T05:15:17.039Z,4
2023-06-19T05:20:16.886Z,4
2023-06-19T05:25:17.095Z,4
2023-06-19T05:30:16.931Z,5
2023-06-19T05:35:17.038Z,5
2023-06-19T05:40:17.247Z,4
2023-06-19T05:45:16.985Z,5
2023-06-19T05:50:17.306Z,5
2023-06-19T05:55:17.119Z,4
2023-06-19T06:00:17.084Z,3
2023-06-19T06:05:17.033Z,2
2023-06-19T06:10:17.170Z,2
2023-06-19T06:15:17.317Z,3
2023-06-19T06:20:17.214Z,4
2023-06-19T06:25:17.365Z,4
2023-06-19T06:30:19.979Z,4
2023-06-19T06:35:17.373Z,3
2023-06-19T06:40:17.288Z,3
2023-06-19T06:45:17.061Z,2
2023-06-19T06:50:17.342Z,2
2023-06-19T06:55:17.229Z,2
2023-06-19T07:00:17.456Z,2
2023-06-19T07:05:17.219Z,2
2023-06-19T07:10:18.495Z,2
2023-06-19T07:15:17.277Z,3
2023-06-19T07:20:17.242Z,3
2023-06-19T07:25:17.523Z,4
2023-06-19T07:30:17.253Z,4
2023-06-19T07:35:17.254Z,3
2023-06-19T07:40:18.977Z,3
2023-06-19T07:45:17.422Z,5
2023-06-19T07:50:17.371Z,5
2023-06-19T07:55:17.374Z,5
2023-06-19T08:00:17.355Z,6
2023-06-19T08:05:17.379Z,5
2023-06-19T08:10:17.829Z,7
2023-06-19T08:15:17.157Z,7
2023-06-19T08:20:17.407Z,7
2023-06-19T08:25:17.441Z,6
2023-06-19T08:30:17.612Z,5
2023-06-19T08:35:17.292Z,8
2023-06-19T08:40:17.537Z,8
2023-06-19T08:45:17.365Z,10
2023-06-19T08:50:17.276Z,12
2023-06-19T08:55:17.507Z,11
2023-06-19T09:00:17.265Z,11
2023-06-19T09:05:17.278Z,11
2023-06-19T09:10:18.544Z,12
2023-06-19T09:15:17.226Z,13
2023-06-19T09:20:17.507Z,12
2023-06-19T09:25:17.333Z,12
2023-06-19T09:30:17.190Z,11
2023-06-19T09:35:17.406Z,10
2023-06-19T09:40:17.290Z,10
2023-06-19T09:45:17.461Z,10
2023-06-19T09:50:17.354Z,10
2023-06-19T09:55:17.321Z,10
2023-06-19T10:00:17.661Z,10
2023-06-19T10:05:17.488Z,8
2023-06-19T10:10:17.472Z,9
2023-06-19T10:15:17.762Z,9
2023-06-19T10:20:17.484Z,11
2023-06-19T10:25:18.680Z,11
2023-06-19T10:30:17.554Z,11
2023-06-19T10:35:17.288Z,10
2023-06-19T10:40:17.658Z,11
2023-06-19T10:45:17.344Z,12
2023-06-19T10:50:17.504Z,11
2023-06-19T10:55:17.591Z,12
2023-06-19T11:00:17.409Z,11
2023-06-19T11:05:17.377Z,12
2023-06-19T11:10:18.610Z,11
2023-06-19T11:15:17.381Z,10
2023-06-19T11:20:17.426Z,10
2023-06-19T11:25:17.723Z,10
2023-06-19T11:30:17.506Z,10
2023-06-19T11:35:17.362Z,10
2023-06-19T11:40:17.580Z,9
2023-06-19T11:45:17.519Z,9
2023-06-19T11:50:17.553Z,9
2023-06-19T11:55:17.526Z,8
2023-06-19T12:00:17.567Z,8
2023-06-19T12:05:17.492Z,7
2023-06-19T12:10:17.528Z,8
2023-06-19T12:15:17.505Z,7
2023-06-19T12:20:17.604Z,7
2023-06-19T12:25:17.566Z,8
2023-06-19T12:30:17.605Z,7
2023-06-19T12:35:17.682Z,6
2023-06-19T12:40:17.840Z,6
2023-06-19T12:45:17.644Z,6
2023-06-19T12:50:17.794Z,7
2023-06-19T12:55:17.614Z,7
2023-06-19T13:00:17.630Z,7
2023-06-19T13:05:17.640Z,8
2023-06-19T13:10:19.265Z,7
2023-06-19T13:15:17.710Z,7
2023-06-19T13:20:17.795Z,7
2023-06-19T13:25:17.883Z,7
2023-06-19T13:30:17.970Z,8
2023-06-19T13:35:17.739Z,8
2023-06-19T13:40:18.012Z,7
2023-06-19T13:45:17.788Z,7
2023-06-19T13:50:17.767Z,7
2023-06-19T13:55:17.904Z,6
2023-06-19T14:00:17.992Z,7
2023-06-19T14:05:17.796Z,7
2023-06-19T14:10:17.980Z,7
2023-06-19T14:15:17.755Z,6
2023-06-19T14:20:17.975Z,7
2023-06-19T14:25:17.858Z,9
2023-06-19T14:30:17.805Z,9
2023-06-19T14:35:17.760Z,8
2023-06-19T14:40:17.825Z,9
2023-06-19T14:45:17.787Z,8
2023-06-19T14:50:18.006Z,8
2023-06-19T14:55:18.013Z,8
2023-06-19T15:00:17.915Z,9
2023-06-19T15:05:17.914Z,9
2023-06-19T15:10:19.134Z,10
2023-06-19T15:15:17.868Z,11
2023-06-19T15:20:17.914Z,10
2023-06-19T15:25:18.048Z,10
2023-06-19T15:30:18.098Z,10
2023-06-19T15:35:17.900Z,10
2023-06-19T15:40:18.048Z,11
2023-06-19T15:45:17.975Z,9
2023-06-19T15:50:17.918Z,7
2023-06-19T15:55:18.128Z,8
2023-06-19T16:00:17.966Z,9
2023-06-19T16:05:18.233Z,7
2023-06-19T16:10:18.032Z,7
2023-06-19T16:15:18.042Z,8
2023-06-19T16:20:18.249Z,8
2023-06-19T16:25:18.539Z,8
2023-06-19T16:30:18.045Z,7
2023-06-19T16:35:18.021Z,6
2023-06-19T16:40:18.209Z,7
2023-06-19T16:45:18.100Z,6
2023-06-19T16:50:18.134Z,5
2023-06-19T16:55:18.194Z,5
2023-06-19T17:00:18.211Z,5
2023-06-19T17:05:18.188Z,5
2023-06-19T17:10:19.180Z,6
2023-06-19T17:15:16.513Z,5
2023-06-19T17:20:16.546Z,5
2023-06-19T17:25:16.626Z,6
2023-06-19T17:30:16.626Z,4
2023-06-19T17:35:16.584Z,4
2023-06-19T17:40:16.775Z,5
2023-06-19T17:45:16.902Z,5
2023-06-19T17:50:16.476Z,5
2023-06-19T17:55:16.733Z,4
2023-06-19T18:00:16.613Z,4
2023-06-19T18:05:16.899Z,5
2023-06-19T18:10:16.700Z,5
2023-06-19T18:15:16.745Z,5
2023-06-19T18:20:16.904Z,5
2023-06-19T18:25:16.748Z,5
2023-06-19T18:30:16.823Z,4
2023-06-19T18:35:16.731Z,5
2023-06-19T18:40:16.945Z,7
2023-06-19T18:45:16.767Z,8
2023-06-19T18:50:16.723Z,9
2023-06-19T18:55:17.136Z,8
2023-06-19T19:00:16.769Z,8
2023-06-19T19:05:16.776Z,9
2023-06-19T19:10:18.016Z,9
2023-06-19T19:15:16.712Z,9
2023-06-19T19:20:16.712Z,8
2023-06-19T19:25:16.858Z,7
2023-06-19T19:30:17.284Z,9
2023-06-19T19:35:16.898Z,9
2023-06-19T19:40:16.882Z,9
2023-06-19T19:45:17.069Z,9
2023-06-19T19:50:16.989Z,10
2023-06-19T19:55:16.934Z,8
2023-06-19T20:00:16.845Z,8
2023-06-19T20:05:17.070Z,8
2023-06-19T20:10:17.132Z,8
2023-06-19T20:15:16.953Z,6
2023-06-19T20:20:16.971Z,9
2023-06-19T20:25:16.999Z,7
2023-06-19T20:30:17.007Z,8
2023-06-19T20:35:16.820Z,9
2023-06-19T20:40:17.168Z,6
2023-06-19T20:45:16.993Z,7
2023-06-19T20:50:16.927Z,7
2023-06-19T20:55:17.025Z,7
2023-06-19T21:00:17.143Z,7
2023-06-19T21:05:17.332Z,7
2023-06-19T21:10:18.452Z,8
2023-06-19T21:15:16.955Z,7
2023-06-19T21:20:17.064Z,7
2023-06-19T21:25:17.284Z,7
2023-06-19T21:30:16.992Z,8
2023-06-19T21:35:17.182Z,8
2023-06-19T21:40:17.161Z,8
2023-06-19T21:45:17.207Z,9
2023-06-19T21:50:16.982Z,9
2023-06-19T21:55:17.134Z,10
2023-06-19T22:00:17.028Z,9
2023-06-19T22:05:17.039Z,9
2023-06-19T22:10:17.294Z,8
2023-06-19T22:15:17.061Z,9
2023-06-19T22:20:17.232Z,10
2023-06-19T22:25:17.235Z,11
2023-06-19T22:30:17.159Z,12
2023-06-19T22:35:17.518Z,13
2023-06-19T22:40:17.242Z,13
2023-06-19T22:45:17.170Z,14
2023-06-19T22:50:17.495Z,14
2023-06-19T22:55:17.218Z,14
2023-06-19T23:00:17.139Z,13
2023-06-19T23:05:17.174Z,13
2023-06-19T23:10:17.998Z,14
2023-06-19T23:15:17.363Z,13
2023-06-19T23:20:17.331Z,12
2023-06-19T23:25:17.310Z,13
2023-06-19T23:30:17.478Z,10
2023-06-19T23:35:17.313Z,10
2023-06-19T23:40:17.332Z,11
2023-06-19T23:45:17.228Z,11
2023-06-19T23:50:17.358Z,10
2023-06-19T23:55:17.322Z,10
